Terminal Aerodrome Forecast
Issued by NWS Brownsville, TX

Home | Current Version | Previous Version | Text Only | Print | Product List | Glossary On
Versions: 1 2 3 4 5 6 7 8 9 10 11 12 13 14 15 16
000
FTUS44 KBRO 271134
TAFBRO
TAF
KBRO 271134Z 2712/2812 15008KT P6SM SCT020
      TEMPO 2712/2713 5SM BR BKN018
     FM271400 16012KT P6SM BKN035
     FM271800 17015G22KT P6SM SCT040
     FM280100 14012KT P6SM FEW025 SCT250
     FM280500 16012KT P6SM BKN015=

USA.gov is the U.S. government's official web portal to all federal, state and local government web resources and services.